createdAt,value
2018-10-11T00:01:50.885Z,30.97
2018-10-11T00:04:18.133Z,29.70
2018-10-11T00:06:45.379Z,29.20
2018-10-11T00:09:12.604Z,29.77
2018-10-11T00:11:40.133Z,28.53
2018-10-11T00:14:07.568Z,29.70
2018-10-11T00:16:34.838Z,29.63
2018-10-11T00:19:02.088Z,29.37
2018-10-11T00:21:29.380Z,30.33
2018-10-11T00:23:56.656Z,29.70
2018-10-11T00:26:23.885Z,33.23
2018-10-11T00:28:51.108Z,30.23
2018-10-11T00:31:18.340Z,30.03
2018-10-11T00:33:45.579Z,30.07
2018-10-11T00:36:12.817Z,31.60
2018-10-11T00:38:40.064Z,32.60
2018-10-11T00:41:07.375Z,30.00
2018-10-11T00:43:34.616Z,30.77
2018-10-11T00:46:01.844Z,31.73
2018-10-11T00:48:29.077Z,32.30
2018-10-11T00:50:56.325Z,31.40
2018-10-11T00:53:23.568Z,29.87
2018-10-11T00:55:50.795Z,32.17
2018-10-11T00:58:18.028Z,31.63
2018-10-11T01:00:45.287Z,31.10
2018-10-11T01:03:12.537Z,32.17
2018-10-11T01:05:39.769Z,32.07
2018-10-11T01:08:07.360Z,34.43
2018-10-11T01:10:34.612Z,31.57
2018-10-11T01:13:01.884Z,34.60
2018-10-11T01:15:29.148Z,32.40
2018-10-11T01:17:56.436Z,34.57
2018-10-11T01:20:23.664Z,32.47
2018-10-11T01:22:50.893Z,32.37
2018-10-11T01:25:18.156Z,33.07
2018-10-11T01:27:45.394Z,30.93
2018-10-11T01:30:13.439Z,31.60
2018-10-11T01:32:40.592Z,31.43
2018-10-11T01:35:07.884Z,31.67
2018-10-11T01:37:35.122Z,31.27
2018-10-11T01:40:02.380Z,30.93
2018-10-11T01:42:29.632Z,36.07
2018-10-11T01:44:56.901Z,34.00
2018-10-11T01:47:24.136Z,34.73
2018-10-11T01:49:51.361Z,32.70
2018-10-11T01:52:18.668Z,33.80
2018-10-11T01:54:45.924Z,32.70
2018-10-11T01:57:13.164Z,35.23
2018-10-11T01:59:40.391Z,31.73
2018-10-11T02:02:07.942Z,33.40
2018-10-11T02:04:35.172Z,36.43
2018-10-11T02:07:02.447Z,34.03
2018-10-11T02:09:29.740Z,33.97
2018-10-11T02:11:56.932Z,33.40
2018-10-11T02:14:24.192Z,32.50
2018-10-11T02:16:51.413Z,32.80
2018-10-11T02:19:18.636Z,34.50
2018-10-11T02:21:45.868Z,32.87
2018-10-11T02:24:13.160Z,32.97
2018-10-11T02:26:40.392Z,35.27
2018-10-11T02:29:08.312Z,36.13
2018-10-11T02:31:35.563Z,36.27
2018-10-11T02:34:02.812Z,34.40
2018-10-11T02:36:30.041Z,33.53
2018-10-11T02:38:57.308Z,36.83
2018-10-11T02:41:24.533Z,35.93
2018-10-11T02:43:51.759Z,33.30
2018-10-11T02:46:18.989Z,34.80
2018-10-11T02:48:46.233Z,37.70
2018-10-11T02:51:13.472Z,35.23
2018-10-11T02:53:40.740Z,36.07
2018-10-11T02:56:08.033Z,35.70
2018-10-11T02:59:42.369Z,32.00
2018-10-11T03:02:12.345Z,35.27
2018-10-11T03:04:39.653Z,35.10
2018-10-11T03:07:08.804Z,36.57
2018-10-11T03:09:36.096Z,35.57
2018-10-11T03:12:03.392Z,32.47
2018-10-11T03:14:30.646Z,35.03
2018-10-11T03:16:57.908Z,35.83
2018-10-11T03:19:25.176Z,34.13
2018-10-11T03:21:52.417Z,37.57
2018-10-11T03:24:19.667Z,35.33
2018-10-11T03:26:46.872Z,35.53
2018-10-11T03:29:14.113Z,35.00
2018-10-11T03:31:41.350Z,33.65
2018-10-11T03:34:08.596Z,34.83
2018-10-11T03:36:35.829Z,33.87
2018-10-11T03:39:03.696Z,34.33
2018-10-11T03:41:30.931Z,34.47
2018-10-11T03:43:58.159Z,39.17
2018-10-11T03:46:25.413Z,36.57
2018-10-11T03:48:52.616Z,34.13
2018-10-11T03:51:19.851Z,34.50
2018-10-11T03:53:47.078Z,36.10
2018-10-11T03:56:14.320Z,36.13
2018-10-11T03:58:41.564Z,37.00
2018-10-11T04:01:08.846Z,36.63
2018-10-11T04:03:36.104Z,34.33
2018-10-11T04:06:03.360Z,36.10
2018-10-11T04:08:30.593Z,34.40
2018-10-11T04:10:57.840Z,37.33
2018-10-11T04:13:25.068Z,35.00
2018-10-11T04:15:52.320Z,37.50
2018-10-11T04:18:19.549Z,35.00
2018-10-11T04:20:46.793Z,37.40
2018-10-11T04:23:19.408Z,36.00
2018-10-11T04:25:47.004Z,36.80
2018-10-11T04:28:14.261Z,35.13
2018-10-11T04:30:41.496Z,36.80
2018-10-11T04:33:08.729Z,35.90
2018-10-11T04:35:35.980Z,37.93
2018-10-11T04:38:03.200Z,37.87
2018-10-11T04:40:30.457Z,35.87
2018-10-11T04:42:57.753Z,37.53
2018-10-11T04:45:24.933Z,36.17
2018-10-11T04:47:52.156Z,35.73
2018-10-11T04:50:19.375Z,36.25
2018-10-11T04:52:46.610Z,36.33
2018-10-11T04:55:13.868Z,37.35
2018-10-11T04:57:41.116Z,37.37
2018-10-11T05:00:08.369Z,38.60
2018-10-11T05:02:35.608Z,35.27
2018-10-11T05:05:02.880Z,36.83
2018-10-11T05:07:30.115Z,37.07
2018-10-11T05:09:57.361Z,37.30
2018-10-11T05:12:24.652Z,36.67
2018-10-11T05:14:51.984Z,35.60
2018-10-11T05:17:19.335Z,38.23
2018-10-11T05:19:46.565Z,37.57
2018-10-11T05:22:13.851Z,40.90
2018-10-11T05:24:41.124Z,41.33
2018-10-11T05:27:08.388Z,38.67
2018-10-11T05:29:35.633Z,42.80
2018-10-11T05:32:03.001Z,42.63
2018-10-11T05:34:30.220Z,42.83
2018-10-11T05:36:57.439Z,44.10
2018-10-11T05:39:24.744Z,43.67
2018-10-11T05:41:52.041Z,43.80
2018-10-11T05:44:19.355Z,47.33
2018-10-11T05:46:46.585Z,46.93
2018-10-11T05:49:13.891Z,44.77
2018-10-11T05:51:41.224Z,45.97
2018-10-11T05:54:08.521Z,47.37
2018-10-11T05:56:38.021Z,47.83
2018-10-11T05:59:05.812Z,49.00
2018-10-11T06:01:33.240Z,48.63
2018-10-11T06:04:01.162Z,46.27
2018-10-11T06:06:28.412Z,51.00
2018-10-11T06:08:55.748Z,47.93
2018-10-11T06:11:23.020Z,52.13
2018-10-11T06:13:50.428Z,51.43
2018-10-11T06:16:17.684Z,50.50
2018-10-11T06:18:45.352Z,52.63
2018-10-11T06:21:13.036Z,50.00
2018-10-11T06:23:40.372Z,51.27
2018-10-11T06:26:07.651Z,53.90
2018-10-11T06:28:34.997Z,52.63
2018-10-11T06:31:02.777Z,55.23
2018-10-11T06:33:30.087Z,49.83
2018-10-11T06:35:58.018Z,48.90
2018-10-11T06:38:25.336Z,51.27
2018-10-11T06:40:52.631Z,47.97
2018-10-11T06:43:20.171Z,43.90
2018-10-11T06:45:47.492Z,42.77
2018-10-11T06:48:14.825Z,43.43
2018-10-11T06:50:42.500Z,41.53
2018-10-11T06:53:09.833Z,39.90
2018-10-11T06:55:37.061Z,41.97
2018-10-11T06:58:04.308Z,42.93
2018-10-11T07:00:31.544Z,37.47
2018-10-11T07:02:58.876Z,40.20
2018-10-11T07:05:26.129Z,41.20
2018-10-11T07:07:53.372Z,40.70
2018-10-11T07:10:20.656Z,36.90
2018-10-11T07:12:47.904Z,35.85
2018-10-11T07:15:15.136Z,36.70
2018-10-11T07:17:42.389Z,34.10
2018-10-11T07:20:09.647Z,33.27
2018-10-11T07:22:36.900Z,32.27
2018-10-11T07:25:04.180Z,31.30
2018-10-11T07:27:31.424Z,32.60
2018-10-11T07:29:58.778Z,30.63
2018-10-11T07:32:26.069Z,31.90
2018-10-11T07:34:53.416Z,29.70
2018-10-11T07:37:20.589Z,31.13
2018-10-11T07:39:47.832Z,30.40
2018-10-11T07:42:15.052Z,29.83
2018-10-11T07:44:42.286Z,28.03
2018-10-11T07:47:09.599Z,27.40
2018-10-11T07:49:36.985Z,26.37
2018-10-11T07:52:04.228Z,28.30
2018-10-11T07:54:32.731Z,26.23
2018-10-11T07:57:00.381Z,27.25
2018-10-11T07:59:27.768Z,26.63
2018-10-11T08:01:55.017Z,24.20
2018-10-11T08:04:22.258Z,24.33
2018-10-11T08:06:49.530Z,24.03
2018-10-11T08:09:16.777Z,22.97
2018-10-11T08:11:44.131Z,22.80
2018-10-11T08:14:11.288Z,22.67
2018-10-11T08:16:38.625Z,21.63
2018-10-11T08:19:06.530Z,20.57
2018-10-11T08:21:33.689Z,21.30
2018-10-11T08:24:00.920Z,20.97
2018-10-11T08:26:28.545Z,20.17
2018-10-11T08:28:55.456Z,21.40
2018-10-11T08:31:22.709Z,21.07
2018-10-11T08:33:49.946Z,20.40
2018-10-11T08:36:17.200Z,20.00
2018-10-11T08:38:44.509Z,23.77
2018-10-11T08:41:11.705Z,19.30
2018-10-11T08:43:39.065Z,20.43
2018-10-11T08:46:06.252Z,20.77
2018-10-11T08:48:33.589Z,20.57
2018-10-11T08:51:00.828Z,20.80
2018-10-11T08:53:28.112Z,23.63
2018-10-11T08:55:55.378Z,21.03
2018-10-11T08:58:22.565Z,20.73
2018-10-11T09:00:49.864Z,21.13
2018-10-11T09:03:17.122Z,20.80
2018-10-11T09:05:44.352Z,25.00
2018-10-11T09:08:11.596Z,21.13
2018-10-11T09:10:38.869Z,21.47
2018-10-11T09:13:06.144Z,23.73
2018-10-11T09:15:33.389Z,21.20
2018-10-11T09:18:00.645Z,20.87
2018-10-11T09:20:27.933Z,18.90
2018-10-11T09:22:55.173Z,20.63
2018-10-11T09:25:22.421Z,17.37
2018-10-11T09:27:49.675Z,18.70
2018-10-11T09:30:16.945Z,16.90
2018-10-11T09:32:44.168Z,17.33
2018-10-11T09:35:11.401Z,19.70
2018-10-11T09:37:38.659Z,15.90
2018-10-11T09:40:05.928Z,16.85
2018-10-11T09:42:33.168Z,16.63
2018-10-11T09:45:00.412Z,17.00
2018-10-11T09:47:27.757Z,15.67
2018-10-11T09:49:55.020Z,16.23
2018-10-11T09:52:22.259Z,16.33
2018-10-11T09:54:49.610Z,17.90
2018-10-11T09:57:27.864Z,14.87
2018-10-11T09:59:55.372Z,14.37
2018-10-11T10:02:23.588Z,16.07
2018-10-11T10:04:52.485Z,14.77
2018-10-11T10:07:19.750Z,15.60
2018-10-11T10:09:47.646Z,15.40
2018-10-11T10:12:15.477Z,12.03
2018-10-11T10:14:43.541Z,14.90
2018-10-11T10:17:10.872Z,13.40
2018-10-11T10:19:38.105Z,11.97
2018-10-11T10:22:05.448Z,12.43
2018-10-11T10:24:32.741Z,12.20
2018-10-11T10:27:00.037Z,10.80
2018-10-11T10:29:27.265Z,13.33
2018-10-11T10:31:54.512Z,13.40
2018-10-11T10:39:15.208Z,10.10
2018-10-11T10:41:42.453Z,9.25
2018-10-11T10:44:09.688Z,9.25
2018-10-11T10:46:37.425Z,9.30
2018-10-11T10:49:04.693Z,9.00
2018-10-11T10:53:59.008Z,9.10
2018-10-11T10:56:26.248Z,8.40
2018-10-11T10:58:54.290Z,8.00
2018-10-11T11:06:16.292Z,7.50
2018-10-11T11:33:10.926Z,6.80
2018-10-11T11:40:31.673Z,6.95
2018-10-11T11:42:59.095Z,7.20
2018-10-11T12:56:27.841Z,8.10
2018-10-11T13:03:48.500Z,7.50
2018-10-11T13:06:15.756Z,6.05
2018-10-11T13:08:43.013Z,6.23
2018-10-11T13:11:10.265Z,6.65
2018-10-11T13:13:37.724Z,5.80
2018-10-11T13:23:25.233Z,10.60
2018-10-11T13:28:19.237Z,5.50
2018-10-11T13:43:00.313Z,7.50
2018-10-11T14:02:35.388Z,6.50
2018-10-11T14:05:02.641Z,6.13
2018-10-11T14:07:29.909Z,10.63
2018-10-11T14:09:57.172Z,7.77
2018-10-11T14:12:24.417Z,7.27
2018-10-11T14:14:51.662Z,7.73
2018-10-11T14:17:18.928Z,7.30
2018-10-11T14:19:46.184Z,7.97
2018-10-11T14:22:13.400Z,6.70
2018-10-11T14:24:40.640Z,7.73
2018-10-11T14:27:07.900Z,7.17
2018-10-11T14:29:35.144Z,6.27
2018-10-11T14:32:02.398Z,6.13
2018-10-11T14:34:29.649Z,9.73
2018-10-11T14:36:57.010Z,5.90
2018-10-11T14:39:24.151Z,5.23
2018-10-11T14:41:51.391Z,8.50
2018-10-11T14:44:18.648Z,7.73
2018-10-11T14:46:45.894Z,7.13
2018-10-11T14:49:13.132Z,6.10
2018-10-11T14:51:44.476Z,5.47
2018-10-11T14:54:07.621Z,4.60
2018-10-11T14:56:34.889Z,4.20
2018-10-11T14:59:02.181Z,3.57
2018-10-11T15:01:29.437Z,3.97
2018-10-11T15:03:56.684Z,3.23
2018-10-11T15:06:23.924Z,3.23
2018-10-11T15:08:51.163Z,7.47
2018-10-11T15:11:18.497Z,3.00
2018-10-11T15:13:45.688Z,2.97
2018-10-11T15:16:12.941Z,4.57
2018-10-11T15:18:40.192Z,3.17
2018-10-11T15:21:07.585Z,3.57
2018-10-11T15:23:34.860Z,4.40
2018-10-11T15:26:02.137Z,2.77
2018-10-11T15:28:29.403Z,7.50
2018-10-11T15:30:56.636Z,6.43
2018-10-11T15:33:23.868Z,3.40
2018-10-11T15:35:51.111Z,4.13
2018-10-11T15:38:18.476Z,3.30
2018-10-11T15:48:06.026Z,3.90
2018-10-11T15:50:33.264Z,5.00
2018-10-11T16:00:20.720Z,4.30
2018-10-11T16:02:48.025Z,4.90
2018-10-11T16:05:15.221Z,2.75
2018-10-11T16:12:35.949Z,6.30
2018-10-11T16:17:29.942Z,3.20
2018-10-11T16:19:57.191Z,3.80
2018-10-11T16:22:24.467Z,10.00
2018-10-11T16:24:51.812Z,3.03
2018-10-11T16:27:18.972Z,5.63
2018-10-11T16:29:46.720Z,4.23
2018-10-11T16:32:14.047Z,4.55
2018-10-11T16:37:07.965Z,6.30
2018-10-11T16:39:35.201Z,6.10
2018-10-11T16:46:55.986Z,4.35
2018-10-11T17:01:36.940Z,3.00
2018-10-11T17:04:04.297Z,3.70
2018-10-11T17:26:05.553Z,5.80
2018-10-11T17:30:59.570Z,6.70
2018-10-11T17:33:26.832Z,5.90
2018-10-11T17:38:20.868Z,8.00
2018-10-11T17:40:48.128Z,11.20
2018-10-11T17:43:15.369Z,6.80
2018-10-11T17:45:42.668Z,6.50
2018-10-11T17:48:09.979Z,9.30
2018-10-11T17:50:37.230Z,9.57
2018-10-11T17:53:04.521Z,5.55
2018-10-11T17:55:31.792Z,7.80
2018-10-11T17:57:59.040Z,6.80
2018-10-11T18:00:26.328Z,6.77
2018-10-11T18:02:53.577Z,8.13
2018-10-11T18:05:20.829Z,6.90
2018-10-11T18:07:48.081Z,5.90
2018-10-11T18:10:15.362Z,6.00
2018-10-11T18:12:43.001Z,8.90
2018-10-11T18:15:10.256Z,6.25
2018-10-11T18:17:37.502Z,7.55
2018-10-11T18:20:04.801Z,7.30
2018-10-11T18:22:32.052Z,4.90
2018-10-11T18:24:59.289Z,5.65
2018-10-11T18:27:26.525Z,8.40
2018-10-11T18:29:53.766Z,8.30
2018-10-11T18:32:21.041Z,7.80
2018-10-11T18:34:48.344Z,5.80
2018-10-11T18:37:15.580Z,7.23
2018-10-11T18:39:42.808Z,8.75
2018-10-11T18:42:10.052Z,5.90
2018-10-11T18:54:24.304Z,6.10
2018-10-11T18:56:51.561Z,10.35
2018-10-11T18:59:18.810Z,7.10
2018-10-11T19:01:46.064Z,7.90
2018-10-11T19:04:13.325Z,5.70
2018-10-11T19:09:07.967Z,9.10
2018-10-11T19:21:22.188Z,8.37
2018-10-11T19:23:49.441Z,6.10
2018-10-11T19:26:16.692Z,5.67
2018-10-11T19:28:43.941Z,6.53
2018-10-11T19:31:11.197Z,6.63
2018-10-11T19:33:38.426Z,7.90
2018-10-11T19:36:05.673Z,8.20
2018-10-11T19:38:32.924Z,9.30
2018-10-11T19:41:00.168Z,7.97
2018-10-11T19:43:27.396Z,7.27
2018-10-11T19:45:54.652Z,7.03
2018-10-11T19:48:22.216Z,7.90
2018-10-11T19:50:49.404Z,7.67
2018-10-11T19:53:16.636Z,6.60
2018-10-11T19:55:43.875Z,10.23
2018-10-11T19:58:11.128Z,6.97
2018-10-11T20:00:38.492Z,7.70
2018-10-11T20:03:05.748Z,6.53
2018-10-11T20:05:33.049Z,7.80
2018-10-11T20:08:00.313Z,8.20
2018-10-11T20:10:27.540Z,6.60
2018-10-11T20:12:54.788Z,8.33
2018-10-11T20:15:22.184Z,7.27
2018-10-11T20:17:49.425Z,8.37
2018-10-11T20:20:16.671Z,7.40
2018-10-11T20:22:44.704Z,7.00
2018-10-11T20:25:12.396Z,7.03
2018-10-11T20:27:39.649Z,8.33
2018-10-11T20:30:09.065Z,8.67
2018-10-11T20:32:36.292Z,7.47
2018-10-11T20:35:03.583Z,7.80
2018-10-11T20:37:30.824Z,7.80
2018-10-11T20:39:58.064Z,7.67
2018-10-11T20:42:25.318Z,6.70
2018-10-11T20:44:52.556Z,7.17
2018-10-11T20:47:19.821Z,8.03
2018-10-11T20:49:47.049Z,7.97
2018-10-11T20:52:14.289Z,10.23
2018-10-11T20:54:42.896Z,7.93
2018-10-11T20:57:10.160Z,8.87
2018-10-11T20:59:37.381Z,9.43
2018-10-11T21:02:04.972Z,8.60
2018-10-11T21:04:32.204Z,8.77
2018-10-11T21:06:59.446Z,8.47
2018-10-11T21:09:26.708Z,8.30
2018-10-11T21:11:53.977Z,8.80
2018-10-11T21:14:21.213Z,11.40
2018-10-11T21:16:48.456Z,8.73
2018-10-11T21:19:15.697Z,9.43
2018-10-11T21:21:42.960Z,9.90
2018-10-11T21:24:10.214Z,9.03
2018-10-11T21:26:37.472Z,9.23
2018-10-11T21:29:04.741Z,9.40
2018-10-11T21:31:31.984Z,8.70
2018-10-11T21:33:59.225Z,9.27
2018-10-11T21:36:26.461Z,10.13
2018-10-11T21:38:53.691Z,8.53
2018-10-11T21:41:20.949Z,9.67
2018-10-11T21:43:48.189Z,10.23
2018-10-11T21:46:15.482Z,8.83
2018-10-11T21:48:42.684Z,8.60
2018-10-11T21:51:09.998Z,9.90
2018-10-11T21:53:37.233Z,9.87
2018-10-11T21:56:04.457Z,11.73
2018-10-11T21:58:31.685Z,10.53
2018-10-11T22:01:04.560Z,10.70
2018-10-11T22:03:31.793Z,8.90
2018-10-11T22:05:59.021Z,9.37
2018-10-11T22:08:26.260Z,11.13
2018-10-11T22:10:53.552Z,9.50
2018-10-11T22:13:20.781Z,10.17
2018-10-11T22:15:48.013Z,10.87
2018-10-11T22:18:15.260Z,9.57
2018-10-11T22:20:42.551Z,9.90
2018-10-11T22:23:09.774Z,9.47
2018-10-11T22:25:37.021Z,10.33
2018-10-11T22:28:04.324Z,9.73
2018-10-11T22:30:31.576Z,11.80
2018-10-11T22:32:58.848Z,9.93
2018-10-11T22:35:26.095Z,9.07
2018-10-11T22:37:58.578Z,10.40
2018-10-11T22:40:26.241Z,9.30
2018-10-11T22:42:53.682Z,9.63
2018-10-11T22:45:20.982Z,9.93
2018-10-11T22:47:48.273Z,9.53
2018-10-11T22:50:15.549Z,9.40
2018-10-11T22:52:42.804Z,9.77
2018-10-11T22:55:10.064Z,10.47
2018-10-11T22:57:37.327Z,12.93
2018-10-11T23:00:04.632Z,9.47
2018-10-11T23:02:31.884Z,10.80
2018-10-11T23:04:59.128Z,10.80
2018-10-11T23:07:26.380Z,10.87
2018-10-11T23:09:53.712Z,10.03
2018-10-11T23:12:20.963Z,8.70
2018-10-11T23:14:48.316Z,8.53
2018-10-11T23:17:15.468Z,8.27
2018-10-11T23:19:42.716Z,7.60
2018-10-11T23:22:09.949Z,6.87
2018-10-11T23:24:37.209Z,5.97
2018-10-11T23:27:04.451Z,6.70
2018-10-11T23:29:31.682Z,10.87
2018-10-11T23:31:58.931Z,8.60
2018-10-11T23:34:26.180Z,6.57
2018-10-11T23:36:53.463Z,6.67
2018-10-11T23:39:20.700Z,7.37
2018-10-11T23:41:47.963Z,7.10
2018-10-11T23:44:15.196Z,8.60
2018-10-11T23:46:42.472Z,5.63
2018-10-11T23:49:09.701Z,5.37
2018-10-11T23:51:36.940Z,4.93
2018-10-11T23:54:04.229Z,4.93
2018-10-11T23:56:31.471Z,5.43
2018-10-11T23:58:58.710Z,4.80
